Palau, PW (96940)

12:36 PM PWT on February 27, 2017 (GMT +0900)
Guam International | | Change Station

Elev 295 ft 13.48 °N, 144.80 °E | Updated 23 minutes ago

Overcast
Overcast
84 °F
Feels Like 92 °F
N
14
Wind Variable Wind from ESE
Gusts 24 mph

Today
High -- | Low -- °F
--% Chance of Precip.
Yesterday
High -- | Low -- °F
Precip. -- in
Pressure 29.87 in
Visibility 7.0 miles
Clouds Few 1500 ft
Scattered Clouds 2200 ft
Mostly Cloudy 2600 ft
Heat Index 92 °F
Dew Point 75 °F
Humidity 74%
Rainfall 0.01 in
Snow Depth Not available.
6:15 AM 6:13 PM
New Moon, 0% visible
SPECI PGUM 270313Z 11012G21KT 7SM -RA FEW015 SCT022 BKN026 29/24 A2987 RMK AO2 RAB13 P0000
Pressure 29.87 in
Visibility 7.0 miles
Clouds Few 1500 ft
Scattered Clouds 2200 ft
Mostly Cloudy 2600 ft
Heat Index 92 °F
Dew Point 75 °F
Humidity 74%
Rainfall 0.01 in
Snow Depth Not available.
6:15 AM 6:13 PM
New Moon, 0% visible
SPECI PGUM 270313Z 11012G21KT 7SM -RA FEW015 SCT022 BKN026 29/24 A2987 RMK AO2 RAB13 P0000

Get Your Daily Forecast Email!

Thanks for signing up!

Be on the lookout for a verification email in your inbox.

You'll start receiving the daily forecast at 8 AM.

×

10-Day Weather Forecast

Almanac

Astronomy

Feb. 27, 2017 Rise Set
Actual Time
Civil Twilight
Nautical Twilight
Astronomical Twilight
Moon
Length of Visible Light
Length of Day
Tomorrow will be .
, % of the Moon is Illuminated

Today's Extremes

State Highs State Lows

Community

WunderPhotos

Upload Photos

1,962,540 photos uploaded!

WunderBlog® & News

Nearby

Air Quality

  Air Quality AQ Index Pollutant
Not available.

Snow Depth

Station Depth Elevation

Earthquake Activity

City Distance Mag. Time & Date
Minimum magnitude displayed is 2.5.

Coastal Water Temperatures

Place Temperature

Stations

Nearby Weather Stations

Station Location Temp. Windchill Dew Point Humidity Wind Precip. Elev Updated Type
                   

Watches & Warnings

There are currently no watches in effect.